sensor_id;sensor_type;location;lat;lon;timestamp;P1;durP1;ratioP1;P2;durP2;ratioP2
75746;SDS011;64363;52.198;21.020;2023-04-01T00:00:03;32.03;;;15.43;;
75746;SDS011;64363;52.198;21.020;2023-04-01T00:02:29;31.80;;;15.10;;
75746;SDS011;64363;52.198;21.020;2023-04-01T00:04:55;31.60;;;16.65;;
75746;SDS011;64363;52.198;21.020;2023-04-01T00:07:21;37.55;;;17.77;;
75746;SDS011;64363;52.198;21.020;2023-04-01T00:09:46;29.92;;;15.18;;
75746;SDS011;64363;52.198;21.020;2023-04-01T00:12:12;34.70;;;15.02;;
75746;SDS011;64363;52.198;21.020;2023-04-01T00:14:38;36.80;;;15.98;;
75746;SDS011;64363;52.198;21.020;2023-04-01T00:17:05;32.08;;;15.02;;
75746;SDS011;64363;52.198;21.020;2023-04-01T00:19:31;35.63;;;16.67;;
75746;SDS011;64363;52.198;21.020;2023-04-01T00:21:58;39.13;;;16.48;;
75746;SDS011;64363;52.198;21.020;2023-04-01T00:24:23;33.92;;;17.25;;
75746;SDS011;64363;52.198;21.020;2023-04-01T00:26:49;39.70;;;18.48;;
75746;SDS011;64363;52.198;21.020;2023-04-01T00:29:15;38.42;;;17.27;;
75746;SDS011;64363;52.198;21.020;2023-04-01T00:31:41;37.80;;;17.58;;
75746;SDS011;64363;52.198;21.020;2023-04-01T00:34:06;45.28;;;19.00;;
75746;SDS011;64363;52.198;21.020;2023-04-01T00:36:32;36.38;;;17.23;;
75746;SDS011;64363;52.198;21.020;2023-04-01T00:38:58;36.35;;;17.88;;
75746;SDS011;64363;52.198;21.020;2023-04-01T00:41:26;39.20;;;17.77;;
75746;SDS011;64363;52.198;21.020;2023-04-01T00:44:11;34.75;;;17.48;;
75746;SDS011;64363;52.198;21.020;2023-04-01T00:46:46;38.00;;;17.70;;
75746;SDS011;64363;52.198;21.020;2023-04-01T00:49:13;42.90;;;19.20;;
75746;SDS011;64363;52.198;21.020;2023-04-01T00:51:41;42.40;;;18.33;;
75746;SDS011;64363;52.198;21.020;2023-04-01T00:54:10;37.55;;;18.58;;
75746;SDS011;64363;52.198;21.020;2023-04-01T00:56:40;38.05;;;19.75;;
75746;SDS011;64363;52.198;21.020;2023-04-01T00:59:14;36.53;;;16.42;;
75746;SDS011;64363;52.198;21.020;2023-04-01T01:01:44;39.83;;;17.98;;
75746;SDS011;64363;52.198;21.020;2023-04-01T01:15:23;41.70;;;17.60;;
75746;SDS011;64363;52.198;21.020;2023-04-01T01:17:56;38.63;;;17.50;;
75746;SDS011;64363;52.198;21.020;2023-04-01T01:36:48;42.38;;;19.58;;
75746;SDS011;64363;52.198;21.020;2023-04-01T01:39:19;47.47;;;21.52;;
75746;SDS011;64363;52.198;21.020;2023-04-01T01:41:46;50.35;;;22.88;;
75746;SDS011;64363;52.198;21.020;2023-04-01T01:44:14;37.72;;;19.13;;
75746;SDS011;64363;52.198;21.020;2023-04-01T01:46:42;39.20;;;18.13;;
75746;SDS011;64363;52.198;21.020;2023-04-01T01:49:10;44.45;;;20.40;;
75746;SDS011;64363;52.198;21.020;2023-04-01T01:51:38;39.85;;;18.50;;
75746;SDS011;64363;52.198;21.020;2023-04-01T01:54:05;36.83;;;18.80;;
75746;SDS011;64363;52.198;21.020;2023-04-01T01:56:31;35.35;;;18.77;;
75746;SDS011;64363;52.198;21.020;2023-04-01T01:59:02;48.22;;;20.73;;
75746;SDS011;64363;52.198;21.020;2023-04-01T02:01:33;41.63;;;20.17;;
75746;SDS011;64363;52.198;21.020;2023-04-01T02:04:03;46.28;;;19.00;;
75746;SDS011;64363;52.198;21.020;2023-04-01T02:06:30;36.55;;;17.27;;
75746;SDS011;64363;52.198;21.020;2023-04-01T02:09:00;34.03;;;17.35;;
75746;SDS011;64363;52.198;21.020;2023-04-01T02:11:39;40.88;;;18.88;;
75746;SDS011;64363;52.198;21.020;2023-04-01T02:14:20;35.00;;;17.38;;
75746;SDS011;64363;52.198;21.020;2023-04-01T02:16:49;36.20;;;16.67;;
75746;SDS011;64363;52.198;21.020;2023-04-01T02:19:25;36.28;;;19.13;;
75746;SDS011;64363;52.198;21.020;2023-04-01T02:21:59;48.47;;;20.38;;
75746;SDS011;64363;52.198;21.020;2023-04-01T02:24:28;48.53;;;19.60;;
75746;SDS011;64363;52.198;21.020;2023-04-01T02:26:56;45.92;;;19.27;;
75746;SDS011;64363;52.198;21.020;2023-04-01T02:29:23;34.42;;;18.15;;
75746;SDS011;64363;52.198;21.020;2023-04-01T02:31:53;35.83;;;19.40;;
75746;SDS011;64363;52.198;21.020;2023-04-01T02:34:20;39.08;;;18.92;;
75746;SDS011;64363;52.198;21.020;2023-04-01T02:36:48;45.65;;;21.25;;
75746;SDS011;64363;52.198;21.020;2023-04-01T02:39:15;72.70;;;34.67;;
75746;SDS011;64363;52.198;21.020;2023-04-01T02:41:42;60.08;;;27.27;;
75746;SDS011;64363;52.198;21.020;2023-04-01T02:44:11;45.63;;;21.35;;
75746;SDS011;64363;52.198;21.020;2023-04-01T02:46:38;51.13;;;21.63;;
75746;SDS011;64363;52.198;21.020;2023-04-01T02:49:04;47.15;;;24.08;;
75746;SDS011;64363;52.198;21.020;2023-04-01T02:51:30;50.38;;;25.50;;
75746;SDS011;64363;52.198;21.020;2023-04-01T02:53:56;52.78;;;23.95;;
75746;SDS011;64363;52.198;21.020;2023-04-01T02:56:22;70.90;;;31.50;;
75746;SDS011;64363;52.198;21.020;2023-04-01T02:58:48;56.42;;;24.05;;
75746;SDS011;64363;52.198;21.020;2023-04-01T03:01:14;60.58;;;25.40;;
75746;SDS011;64363;52.198;21.020;2023-04-01T03:03:40;63.03;;;25.85;;
75746;SDS011;64363;52.198;21.020;2023-04-01T03:06:06;55.03;;;26.05;;
75746;SDS011;64363;52.198;21.020;2023-04-01T03:08:33;55.50;;;26.20;;
75746;SDS011;64363;52.198;21.020;2023-04-01T03:10:59;53.17;;;25.73;;
75746;SDS011;64363;52.198;21.020;2023-04-01T03:13:25;60.92;;;26.35;;
75746;SDS011;64363;52.198;21.020;2023-04-01T03:15:51;53.13;;;23.25;;
75746;SDS011;64363;52.198;21.020;2023-04-01T03:18:17;61.38;;;27.17;;
75746;SDS011;64363;52.198;21.020;2023-04-01T03:20:43;57.65;;;25.52;;
75746;SDS011;64363;52.198;21.020;2023-04-01T03:23:08;56.17;;;25.83;;
75746;SDS011;64363;52.198;21.020;2023-04-01T03:25:34;70.28;;;29.95;;
75746;SDS011;64363;52.198;21.020;2023-04-01T03:28:00;58.75;;;25.63;;
75746;SDS011;64363;52.198;21.020;2023-04-01T03:30:26;54.83;;;24.20;;
75746;SDS011;64363;52.198;21.020;2023-04-01T03:32:52;53.20;;;23.45;;
75746;SDS011;64363;52.198;21.020;2023-04-01T03:35:17;62.00;;;26.63;;
75746;SDS011;64363;52.198;21.020;2023-04-01T03:37:43;54.92;;;25.33;;
75746;SDS011;64363;52.198;21.020;2023-04-01T03:40:09;54.38;;;23.08;;
75746;SDS011;64363;52.198;21.020;2023-04-01T03:42:35;60.13;;;26.52;;
75746;SDS011;64363;52.198;21.020;2023-04-01T03:45:02;57.17;;;26.08;;
75746;SDS011;64363;52.198;21.020;2023-04-01T03:47:28;51.38;;;23.80;;
75746;SDS011;64363;52.198;21.020;2023-04-01T03:49:54;57.92;;;24.70;;
75746;SDS011;64363;52.198;21.020;2023-04-01T03:52:20;59.70;;;26.30;;
75746;SDS011;64363;52.198;21.020;2023-04-01T03:54:46;54.50;;;24.67;;
75746;SDS011;64363;52.198;21.020;2023-04-01T03:57:11;53.50;;;24.77;;
75746;SDS011;64363;52.198;21.020;2023-04-01T03:59:37;54.67;;;24.05;;
75746;SDS011;64363;52.198;21.020;2023-04-01T04:02:03;49.60;;;21.30;;
75746;SDS011;64363;52.198;21.020;2023-04-01T04:04:29;58.47;;;23.35;;
75746;SDS011;64363;52.198;21.020;2023-04-01T04:06:55;49.35;;;23.70;;
75746;SDS011;64363;52.198;21.020;2023-04-01T04:09:21;55.38;;;25.30;;
75746;SDS011;64363;52.198;21.020;2023-04-01T04:11:47;49.67;;;22.98;;
75746;SDS011;64363;52.198;21.020;2023-04-01T04:14:13;51.13;;;23.77;;
75746;SDS011;64363;52.198;21.020;2023-04-01T04:16:39;49.58;;;22.30;;
75746;SDS011;64363;52.198;21.020;2023-04-01T04:19:05;49.97;;;21.55;;
75746;SDS011;64363;52.198;21.020;2023-04-01T04:21:31;43.20;;;22.10;;
75746;SDS011;64363;52.198;21.020;2023-04-01T04:23:57;49.53;;;21.02;;
75746;SDS011;64363;52.198;21.020;2023-04-01T04:26:25;47.33;;;20.48;;
75746;SDS011;64363;52.198;21.020;2023-04-01T04:28:51;44.40;;;21.55;;
75746;SDS011;64363;52.198;21.020;2023-04-01T04:31:21;44.28;;;20.85;;
75746;SDS011;64363;52.198;21.020;2023-04-01T04:33:48;50.35;;;21.35;;
75746;SDS011;64363;52.198;21.020;2023-04-01T04:36:14;48.10;;;19.30;;
75746;SDS011;64363;52.198;21.020;2023-04-01T04:38:40;52.35;;;24.30;;
75746;SDS011;64363;52.198;21.020;2023-04-01T04:41:09;41.65;;;18.77;;
75746;SDS011;64363;52.198;21.020;2023-04-01T04:43:37;44.50;;;21.48;;
75746;SDS011;64363;52.198;21.020;2023-04-01T04:46:09;43.78;;;21.27;;
75746;SDS011;64363;52.198;21.020;2023-04-01T04:48:35;38.53;;;18.33;;
75746;SDS011;64363;52.198;21.020;2023-04-01T04:51:02;32.05;;;16.67;;
75746;SDS011;64363;52.198;21.020;2023-04-01T04:53:28;34.65;;;17.20;;
75746;SDS011;64363;52.198;21.020;2023-04-01T04:55:54;37.05;;;16.88;;
75746;SDS011;64363;52.198;21.020;2023-04-01T04:58:20;34.38;;;15.45;;
75746;SDS011;64363;52.198;21.020;2023-04-01T05:00:46;32.90;;;16.27;;
75746;SDS011;64363;52.198;21.020;2023-04-01T05:03:12;31.75;;;16.17;;
75746;SDS011;64363;52.198;21.020;2023-04-01T05:05:38;38.85;;;17.85;;
75746;SDS011;64363;52.198;21.020;2023-04-01T05:08:05;36.78;;;16.08;;
75746;SDS011;64363;52.198;21.020;2023-04-01T05:10:31;31.98;;;16.13;;
75746;SDS011;64363;52.198;21.020;2023-04-01T05:12:57;37.83;;;16.05;;
75746;SDS011;64363;52.198;21.020;2023-04-01T05:15:23;33.35;;;15.32;;
75746;SDS011;64363;52.198;21.020;2023-04-01T05:17:49;40.20;;;18.77;;
75746;SDS011;64363;52.198;21.020;2023-04-01T05:20:15;48.00;;;21.00;;
75746;SDS011;64363;52.198;21.020;2023-04-01T05:22:42;30.05;;;15.40;;
75746;SDS011;64363;52.198;21.020;2023-04-01T05:25:08;28.13;;;14.48;;
75746;SDS011;64363;52.198;21.020;2023-04-01T05:27:34;31.30;;;14.75;;
75746;SDS011;64363;52.198;21.020;2023-04-01T05:30:00;32.10;;;15.13;;
75746;SDS011;64363;52.198;21.020;2023-04-01T05:32:26;30.02;;;13.52;;
75746;SDS011;64363;52.198;21.020;2023-04-01T05:34:52;28.17;;;13.88;;
75746;SDS011;64363;52.198;21.020;2023-04-01T05:37:18;34.90;;;14.57;;
75746;SDS011;64363;52.198;21.020;2023-04-01T05:39:44;29.88;;;14.52;;
75746;SDS011;64363;52.198;21.020;2023-04-01T05:42:10;27.73;;;13.43;;
75746;SDS011;64363;52.198;21.020;2023-04-01T05:44:36;27.45;;;13.35;;
75746;SDS011;64363;52.198;21.020;2023-04-01T05:47:02;31.45;;;13.68;;
75746;SDS011;64363;52.198;21.020;2023-04-01T05:49:29;37.65;;;15.73;;
75746;SDS011;64363;52.198;21.020;2023-04-01T05:51:55;30.30;;;14.05;;
75746;SDS011;64363;52.198;21.020;2023-04-01T05:54:21;42.72;;;17.92;;
75746;SDS011;64363;52.198;21.020;2023-04-01T05:56:47;36.10;;;17.02;;
75746;SDS011;64363;52.198;21.020;2023-04-01T05:59:13;31.05;;;12.50;;
75746;SDS011;64363;52.198;21.020;2023-04-01T06:01:39;31.85;;;14.93;;
75746;SDS011;64363;52.198;21.020;2023-04-01T06:04:05;28.15;;;13.15;;
75746;SDS011;64363;52.198;21.020;2023-04-01T06:06:31;27.13;;;11.95;;
75746;SDS011;64363;52.198;21.020;2023-04-01T06:09:01;28.45;;;12.32;;
75746;SDS011;64363;52.198;21.020;2023-04-01T06:25:54;28.10;;;14.13;;
75746;SDS011;64363;52.198;21.020;2023-04-01T06:28:54;26.02;;;12.98;;
75746;SDS011;64363;52.198;21.020;2023-04-01T06:31:51;31.83;;;15.13;;
75746;SDS011;64363;52.198;21.020;2023-04-01T06:49:11;45.20;;;20.77;;
75746;SDS011;64363;52.198;21.020;2023-04-01T06:57:26;46.25;;;21.52;;
75746;SDS011;64363;52.198;21.020;2023-04-01T06:59:57;43.15;;;20.67;;
75746;SDS011;64363;52.198;21.020;2023-04-01T07:02:29;50.13;;;22.05;;
75746;SDS011;64363;52.198;21.020;2023-04-01T07:05:06;44.40;;;20.55;;
75746;SDS011;64363;52.198;21.020;2023-04-01T07:07:37;40.60;;;19.40;;
75746;SDS011;64363;52.198;21.020;2023-04-01T07:10:13;48.63;;;21.30;;
75746;SDS011;64363;52.198;21.020;2023-04-01T07:12:51;41.60;;;20.50;;
75746;SDS011;64363;52.198;21.020;2023-04-01T07:15:24;53.08;;;21.80;;
75746;SDS011;64363;52.198;21.020;2023-04-01T07:17:59;42.30;;;20.60;;
75746;SDS011;64363;52.198;21.020;2023-04-01T07:20:35;40.70;;;18.83;;
75746;SDS011;64363;52.198;21.020;2023-04-01T07:23:03;48.95;;;20.73;;
75746;SDS011;64363;52.198;21.020;2023-04-01T07:25:43;54.10;;;22.58;;
75746;SDS011;64363;52.198;21.020;2023-04-01T07:28:12;50.03;;;22.92;;
75746;SDS011;64363;52.198;21.020;2023-04-01T07:31:01;46.17;;;23.38;;
75746;SDS011;64363;52.198;21.020;2023-04-01T07:34:34;50.95;;;24.02;;
75746;SDS011;64363;52.198;21.020;2023-04-01T07:49:41;56.33;;;24.98;;
75746;SDS011;64363;52.198;21.020;2023-04-01T07:55:21;59.72;;;26.98;;
75746;SDS011;64363;52.198;21.020;2023-04-01T08:01:11;58.88;;;27.08;;
75746;SDS011;64363;52.198;21.020;2023-04-01T08:09:53;47.72;;;21.17;;
75746;SDS011;64363;52.198;21.020;2023-04-01T08:15:07;47.88;;;22.80;;
75746;SDS011;64363;52.198;21.020;2023-04-01T08:17:39;43.70;;;22.40;;
75746;SDS011;64363;52.198;21.020;2023-04-01T08:20:27;47.63;;;19.88;;
75746;SDS011;64363;52.198;21.020;2023-04-01T08:23:07;36.42;;;17.65;;
75746;SDS011;64363;52.198;21.020;2023-04-01T08:26:10;33.47;;;17.05;;
75746;SDS011;64363;52.198;21.020;2023-04-01T08:29:08;38.35;;;16.38;;
75746;SDS011;64363;52.198;21.020;2023-04-01T08:34:16;30.58;;;15.02;;
75746;SDS011;64363;52.198;21.020;2023-04-01T08:36:46;43.08;;;16.92;;
75746;SDS011;64363;52.198;21.020;2023-04-01T08:39:21;39.72;;;17.00;;
75746;SDS011;64363;52.198;21.020;2023-04-01T08:45:15;41.90;;;19.40;;
75746;SDS011;64363;52.198;21.020;2023-04-01T08:47:58;34.55;;;17.63;;
75746;SDS011;64363;52.198;21.020;2023-04-01T08:50:38;39.30;;;19.27;;
75746;SDS011;64363;52.198;21.020;2023-04-01T08:56:18;27.83;;;14.30;;
75746;SDS011;64363;52.198;21.020;2023-04-01T08:58:52;27.38;;;13.60;;
75746;SDS011;64363;52.198;21.020;2023-04-01T09:15:14;15.27;;;7.03;;
75746;SDS011;64363;52.198;21.020;2023-04-01T09:34:23;25.88;;;10.57;;
75746;SDS011;64363;52.198;21.020;2023-04-01T09:39:42;30.55;;;13.95;;
75746;SDS011;64363;52.198;21.020;2023-04-01T09:45:15;25.13;;;10.77;;
75746;SDS011;64363;52.198;21.020;2023-04-01T09:53:48;12.43;;;5.78;;
75746;SDS011;64363;52.198;21.020;2023-04-01T09:56:52;12.52;;;5.90;;
75746;SDS011;64363;52.198;21.020;2023-04-01T10:19:15;15.55;;;7.85;;
75746;SDS011;64363;52.198;21.020;2023-04-01T10:41:06;12.18;;;7.40;;
75746;SDS011;64363;52.198;21.020;2023-04-01T10:46:55;14.30;;;6.75;;
75746;SDS011;64363;52.198;21.020;2023-04-01T11:14:30;12.20;;;5.50;;
75746;SDS011;64363;52.198;21.020;2023-04-01T11:20:19;9.57;;;4.93;;
75746;SDS011;64363;52.198;21.020;2023-04-01T11:36:09;10.10;;;5.90;;
75746;SDS011;64363;52.198;21.020;2023-04-01T11:38:57;14.27;;;7.75;;
75746;SDS011;64363;52.198;21.020;2023-04-01T11:44:40;16.10;;;7.97;;
75746;SDS011;64363;52.198;21.020;2023-04-01T11:47:22;14.73;;;7.93;;
75746;SDS011;64363;52.198;21.020;2023-04-01T11:55:54;15.70;;;9.50;;
75746;SDS011;64363;52.198;21.020;2023-04-01T11:58:23;16.98;;;8.93;;
75746;SDS011;64363;52.198;21.020;2023-04-01T12:01:17;18.63;;;10.18;;
75746;SDS011;64363;52.198;21.020;2023-04-01T12:09:30;16.88;;;8.60;;
75746;SDS011;64363;52.198;21.020;2023-04-01T12:17:43;9.23;;;5.00;;
75746;SDS011;64363;52.198;21.020;2023-04-01T12:20:36;6.65;;;3.45;;
75746;SDS011;64363;52.198;21.020;2023-04-01T12:23:14;6.60;;;3.83;;
75746;SDS011;64363;52.198;21.020;2023-04-01T12:51:09;6.32;;;4.30;;
75746;SDS011;64363;52.198;21.020;2023-04-01T13:07:30;9.57;;;5.50;;
75746;SDS011;64363;52.198;21.020;2023-04-01T13:16:11;8.10;;;5.15;;
75746;SDS011;64363;52.198;21.020;2023-04-01T13:18:53;9.52;;;5.97;;
75746;SDS011;64363;52.198;21.020;2023-04-01T13:27:06;11.20;;;6.22;;
75746;SDS011;64363;52.198;21.020;2023-04-01T13:29:38;10.57;;;5.32;;
75746;SDS011;64363;52.198;21.020;2023-04-01T13:37:29;8.90;;;6.03;;
75746;SDS011;64363;52.198;21.020;2023-04-01T13:43:11;10.40;;;5.95;;
75746;SDS011;64363;52.198;21.020;2023-04-01T13:56:57;9.90;;;4.93;;
75746;SDS011;64363;52.198;21.020;2023-04-01T14:02:38;10.25;;;4.55;;
75746;SDS011;64363;52.198;21.020;2023-04-01T14:10:39;11.00;;;5.40;;
75746;SDS011;64363;52.198;21.020;2023-04-01T14:18:28;10.00;;;4.93;;
75746;SDS011;64363;52.198;21.020;2023-04-01T14:21:08;9.32;;;4.93;;
75746;SDS011;64363;52.198;21.020;2023-04-01T14:24:05;7.55;;;4.78;;
75746;SDS011;64363;52.198;21.020;2023-04-01T14:51:47;7.22;;;3.83;;
75746;SDS011;64363;52.198;21.020;2023-04-01T14:54:19;6.50;;;3.53;;
75746;SDS011;64363;52.198;21.020;2023-04-01T14:57:10;13.38;;;4.22;;
75746;SDS011;64363;52.198;21.020;2023-04-01T14:59:45;7.85;;;4.05;;
75746;SDS011;64363;52.198;21.020;2023-04-01T15:17:43;6.22;;;2.97;;
75746;SDS011;64363;52.198;21.020;2023-04-01T15:32:21;6.95;;;4.13;;
75746;SDS011;64363;52.198;21.020;2023-04-01T15:35:19;6.47;;;3.60;;
75746;SDS011;64363;52.198;21.020;2023-04-01T15:37:57;11.68;;;3.33;;
75746;SDS011;64363;52.198;21.020;2023-04-01T15:40:35;6.72;;;3.45;;
75746;SDS011;64363;52.198;21.020;2023-04-01T15:59:31;7.47;;;2.92;;
75746;SDS011;64363;52.198;21.020;2023-04-01T16:04:58;8.40;;;3.05;;
75746;SDS011;64363;52.198;21.020;2023-04-01T16:13:24;7.07;;;3.45;;
75746;SDS011;64363;52.198;21.020;2023-04-01T16:16:10;51.50;;;17.65;;
75746;SDS011;64363;52.198;21.020;2023-04-01T16:24:08;7.97;;;5.20;;
75746;SDS011;64363;52.198;21.020;2023-04-01T16:26:47;7.72;;;4.57;;
75746;SDS011;64363;52.198;21.020;2023-04-01T16:32:28;5.70;;;3.35;;
75746;SDS011;64363;52.198;21.020;2023-04-01T16:38:22;9.25;;;3.97;;
75746;SDS011;64363;52.198;21.020;2023-04-01T16:43:28;7.20;;;3.70;;
75746;SDS011;64363;52.198;21.020;2023-04-01T17:02:34;5.10;;;2.42;;
75746;SDS011;64363;52.198;21.020;2023-04-01T17:07:49;6.47;;;2.83;;
75746;SDS011;64363;52.198;21.020;2023-04-01T17:10:38;8.45;;;3.30;;
75746;SDS011;64363;52.198;21.020;2023-04-01T17:13:34;5.22;;;3.28;;
75746;SDS011;64363;52.198;21.020;2023-04-01T17:24:32;6.78;;;3.00;;
75746;SDS011;64363;52.198;21.020;2023-04-01T17:32:31;6.35;;;4.10;;
75746;SDS011;64363;52.198;21.020;2023-04-01T17:45:53;7.78;;;3.50;;
75746;SDS011;64363;52.198;21.020;2023-04-01T17:51:11;9.10;;;4.70;;
75746;SDS011;64363;52.198;21.020;2023-04-01T17:54:05;9.02;;;3.88;;
75746;SDS011;64363;52.198;21.020;2023-04-01T17:59:10;8.55;;;5.18;;
75746;SDS011;64363;52.198;21.020;2023-04-01T18:15:31;19.92;;;10.25;;
75746;SDS011;64363;52.198;21.020;2023-04-01T18:24:14;20.30;;;10.43;;
75746;SDS011;64363;52.198;21.020;2023-04-01T18:26:42;22.30;;;11.32;;
75746;SDS011;64363;52.198;21.020;2023-04-01T18:32:25;23.33;;;12.82;;
75746;SDS011;64363;52.198;21.020;2023-04-01T18:38:00;23.40;;;11.60;;
75746;SDS011;64363;52.198;21.020;2023-04-01T18:40:37;26.17;;;12.88;;
75746;SDS011;64363;52.198;21.020;2023-04-01T18:46:19;25.50;;;11.65;;
75746;SDS011;64363;52.198;21.020;2023-04-01T22:33:32;13.70;;;7.97;;
75746;SDS011;64363;52.198;21.020;2023-04-01T22:38:40;12.45;;;7.72;;
75746;SDS011;64363;52.198;21.020;2023-04-01T22:44:51;13.88;;;6.78;;
75746;SDS011;64363;52.198;21.020;2023-04-01T22:52:42;13.70;;;7.63;;
75746;SDS011;64363;52.198;21.020;2023-04-01T22:57:57;16.00;;;6.22;;
75746;SDS011;64363;52.198;21.020;2023-04-01T23:00:48;14.68;;;8.07;;
75746;SDS011;64363;52.198;21.020;2023-04-01T23:05:49;16.95;;;7.90;;
75746;SDS011;64363;52.198;21.020;2023-04-01T23:11:06;13.20;;;7.80;;
75746;SDS011;64363;52.198;21.020;2023-04-01T23:13:37;14.65;;;7.43;;
75746;SDS011;64363;52.198;21.020;2023-04-01T23:16:05;17.33;;;8.20;;
75746;SDS011;64363;52.198;21.020;2023-04-01T23:27:20;20.52;;;8.82;;
75746;SDS011;64363;52.198;21.020;2023-04-01T23:29:50;16.17;;;8.55;;
75746;SDS011;64363;52.198;21.020;2023-04-01T23:32:19;15.18;;;7.32;;
75746;SDS011;64363;52.198;21.020;2023-04-01T23:34:52;14.27;;;7.82;;
75746;SDS011;64363;52.198;21.020;2023-04-01T23:37:23;14.95;;;7.53;;
75746;SDS011;64363;52.198;21.020;2023-04-01T23:39:54;18.77;;;7.25;;
75746;SDS011;64363;52.198;21.020;2023-04-01T23:42:27;17.80;;;8.25;;
75746;SDS011;64363;52.198;21.020;2023-04-01T23:44:57;15.73;;;7.63;;
75746;SDS011;64363;52.198;21.020;2023-04-01T23:47:32;17.83;;;7.35;;
75746;SDS011;64363;52.198;21.020;2023-04-01T23:50:00;14.43;;;6.72;;
75746;SDS011;64363;52.198;21.020;2023-04-01T23:52:35;16.52;;;7.80;;
75746;SDS011;64363;52.198;21.020;2023-04-01T23:55:47;14.77;;;8.85;;
75746;SDS011;64363;52.198;21.020;2023-04-01T23:58:06;14.20;;;7.47;;
